Time;durP1;ratioP1;P1;durP2;ratioP2;P2;SDS_P1;SDS_P2;PMS_P1;PMS_P2;Temp;Humidity;BMP_temperature;BMP_pressure;BME280_temperature;BME280_humidity;BME280_pressure;Samples;Min_cycle;Max_cycle;Signal;HPM_P1;HPM_P2
2024/02/22 00:01:01;;;;;;;2.25;2.03;;;9.10;99.90;;;;;;5013904;28;20029;-50
2024/02/22 00:03:26;;;;;;;2.67;2.47;;;9.20;99.90;;;;;;5028706;28;20025;-46
2024/02/22 00:05:52;;;;;;;2.58;1.92;;;9.10;99.90;;;;;;5010425;28;20124;-46
2024/02/22 00:08:17;;;;;;;2.95;2.17;;;9.20;99.90;;;;;;5028777;28;20036;-46
2024/02/22 00:10:43;;;;;;;3.20;1.90;;;9.10;99.90;;;;;;5028355;28;20021;-51
2024/02/22 00:13:10;;;;;;;2.80;2.40;;;9.10;99.90;;;;;;5027884;28;20434;-46
2024/02/22 00:15:36;;;;;;;8.23;2.63;;;9.10;99.90;;;;;;5028442;28;20017;-50
2024/02/22 00:18:03;;;;;;;2.50;2.20;;;9.10;99.90;;;;;;5029986;28;20471;-46
2024/02/22 00:20:29;;;;;;;1.98;1.88;;;9.20;99.90;;;;;;5031597;28;20542;-44
2024/02/22 00:22:54;;;;;;;2.47;2.28;;;9.20;99.90;;;;;;5031454;28;20100;-53
2024/02/22 00:25:21;;;;;;;2.60;1.98;;;9.20;99.90;;;;;;5031782;28;20037;-49
2024/02/22 00:27:47;;;;;;;4.15;2.17;;;9.20;99.90;;;;;;5031270;28;20455;-51
2024/02/22 00:30:13;;;;;;;1.80;1.70;;;9.30;99.90;;;;;;5031570;28;20101;-48
2024/02/22 00:32:40;;;;;;;2.50;2.10;;;9.30;99.90;;;;;;5030874;28;20018;-51
2024/02/22 00:35:06;;;;;;;5.30;2.15;;;9.30;99.90;;;;;;5013498;28;20030;-47
2024/02/22 00:37:37;;;;;;;2.20;1.90;;;9.40;99.90;;;;;;5031338;28;20105;-49
2024/02/22 00:40:04;;;;;;;4.32;2.08;;;9.40;99.90;;;;;;5031442;28;20433;-45
2024/02/22 00:42:30;;;;;;;3.25;2.08;;;9.30;99.90;;;;;;5031004;28;20021;-50
2024/02/22 00:44:56;;;;;;;2.03;1.83;;;9.30;99.90;;;;;;5045236;23;20129;-53
2024/02/22 00:47:21;;;;;;;1.92;1.83;;;9.30;99.90;;;;;;5011163;28;20503;-55
2024/02/22 00:49:47;;;;;;;5.30;2.10;;;9.30;99.90;;;;;;5011478;28;20033;-50
2024/02/22 00:52:12;;;;;;;2.53;1.52;;;9.30;99.90;;;;;;5011531;28;20026;-54
2024/02/22 00:54:38;;;;;;;2.13;1.92;;;9.30;99.90;;;;;;5011351;28;20411;-54
2024/02/22 00:57:03;;;;;;;3.58;2.67;;;9.30;99.90;;;;;;5010505;28;20104;-50
2024/02/22 00:59:32;;;;;;;7.90;5.35;;;9.30;99.90;;;;;;5011468;28;20029;-49
2024/02/22 01:01:57;;;;;;;3.17;2.10;;;9.30;99.90;;;;;;5011572;28;20432;-47
2024/02/22 01:04:23;;;;;;;7.75;2.03;;;9.30;99.90;;;;;;5011853;28;20057;-52
2024/02/22 01:06:50;;;;;;;1.83;1.60;;;9.30;99.90;;;;;;5011291;28;20509;-49
2024/02/22 01:09:15;;;;;;;2.05;1.67;;;9.30;99.90;;;;;;5011411;28;20029;-48
2024/02/22 01:11:41;;;;;;;3.33;1.60;;;9.40;99.90;;;;;;5011418;28;20033;-49
2024/02/22 01:14:06;;;;;;;3.67;1.55;;;9.40;99.90;;;;;;5012367;28;20568;-53
2024/02/22 01:16:34;;;;;;;2.28;1.50;;;9.30;99.90;;;;;;5015029;28;20034;-49
2024/02/22 01:18:59;;;;;;;2.10;1.85;;;9.30;99.90;;;;;;5015076;28;20025;-49
2024/02/22 01:21:26;;;;;;;3.13;1.60;;;9.40;99.90;;;;;;5014781;28;20026;-50
2024/02/22 01:23:51;;;;;;;1.60;1.50;;;9.40;99.90;;;;;;5014946;28;20054;-48
2024/02/22 01:26:17;;;;;;;2.25;2.08;;;9.40;99.90;;;;;;4997205;28;20115;-53
2024/02/22 01:28:43;;;;;;;1.92;1.65;;;9.40;99.90;;;;;;5015105;28;20029;-49
2024/02/22 01:31:09;;;;;;;1.67;1.52;;;9.40;99.90;;;;;;5013604;28;20025;-48
2024/02/22 01:33:35;;;;;;;2.85;1.58;;;9.50;99.90;;;;;;5014809;28;20030;-49
2024/02/22 01:36:01;;;;;;;1.77;1.50;;;9.50;99.90;;;;;;5014383;28;20033;-48
2024/02/22 01:38:27;;;;;;;7.68;1.50;;;9.50;99.90;;;;;;5014720;28;20602;-49
2024/02/22 01:40:52;;;;;;;1.40;1.30;;;9.50;99.90;;;;;;5014662;28;20384;-48
2024/02/22 01:43:18;;;;;;;1.50;1.40;;;9.50;99.90;;;;;;5014688;28;20028;-50
2024/02/22 01:45:44;;;;;;;2.38;1.58;;;9.50;99.90;;;;;;5014383;28;20113;-50
2024/02/22 01:48:10;;;;;;;4.95;1.40;;;9.50;99.90;;;;;;5014490;28;20427;-49
2024/02/22 01:50:39;;;;;;;4.15;1.50;;;9.50;99.90;;;;;;5014550;28;20030;-50
2024/02/22 01:53:05;;;;;;;6.30;2.03;;;9.50;99.90;;;;;;5014244;28;20037;-52
2024/02/22 01:55:31;;;;;;;1.80;1.55;;;9.50;99.90;;;;;;5014201;28;20034;-51
2024/02/22 01:57:57;;;;;;;3.08;1.35;;;9.50;99.90;;;;;;5014001;28;20022;-50
2024/02/22 02:00:23;;;;;;;1.27;1.23;;;9.50;99.90;;;;;;5014161;28;20033;-52
2024/02/22 02:02:49;;;;;;;2.85;1.50;;;9.50;99.90;;;;;;5014319;28;20117;-54
2024/02/22 02:05:16;;;;;;;5.50;1.70;;;9.50;99.90;;;;;;5014052;28;20037;-50
2024/02/22 02:07:42;;;;;;;2.78;1.50;;;9.50;99.90;;;;;;5014364;28;20022;-49
2024/02/22 02:10:11;;;;;;;1.10;1.10;;;9.50;99.90;;;;;;5013915;28;20026;-49
2024/02/22 02:12:37;;;;;;;3.70;1.90;;;9.50;99.90;;;;;;5014040;28;20026;-52
2024/02/22 02:15:04;;;;;;;6.25;3.10;;;9.50;99.90;;;;;;4996166;28;20525;-49
2024/02/22 02:17:29;;;;;;;1.50;1.40;;;9.60;99.90;;;;;;5013660;28;20029;-54
2024/02/22 02:19:57;;;;;;;2.33;1.60;;;9.60;99.90;;;;;;5013832;28;20109;-55
2024/02/22 02:22:56;;;;;;;1.85;1.58;;;9.60;99.90;;;;;;5013751;28;20113;-49
2024/02/22 02:25:22;;;;;;;4.35;1.55;;;9.50;99.90;;;;;;4994751;28;20026;-52
2024/02/22 02:27:48;;;;;;;1.85;1.33;;;9.50;99.90;;;;;;5013781;28;20072;-50
2024/02/22 02:30:14;;;;;;;2.67;1.10;;;9.50;99.90;;;;;;5013843;28;20037;-50
2024/02/22 02:32:40;;;;;;;1.05;1.02;;;9.50;99.90;;;;;;5013473;28;20018;-54
2024/02/22 02:35:06;;;;;;;0.80;0.80;;;9.60;99.90;;;;;;5013395;28;20073;-55
2024/02/22 02:37:31;;;;;;;4.10;1.13;;;9.50;99.90;;;;;;5013098;28;20483;-51
2024/02/22 02:39:57;;;;;;;0.90;0.90;;;9.50;99.90;;;;;;5013483;28;20034;-50
2024/02/22 02:42:23;;;;;;;1.50;1.10;;;9.50;99.90;;;;;;5013237;28;20030;-50
2024/02/22 02:44:49;;;;;;;3.65;1.30;;;9.60;99.90;;;;;;5013224;28;20027;-50
2024/02/22 02:47:15;;;;;;;2.05;1.40;;;9.70;99.90;;;;;;5012907;28;20096;-47
2024/02/22 02:49:41;;;;;;;4.80;1.65;;;9.60;99.90;;;;;;5013360;28;20018;-52
2024/02/22 02:52:07;;;;;;;2.63;1.20;;;9.60;99.90;;;;;;4995529;28;20491;-51
2024/02/22 02:54:32;;;;;;;1.50;1.40;;;9.60;99.90;;;;;;4995503;28;20117;-52
2024/02/22 02:56:58;;;;;;;2.45;1.85;;;9.50;99.90;;;;;;5013126;28;20038;-48
2024/02/22 02:59:23;;;;;;;3.35;1.88;;;9.60;99.90;;;;;;5013158;28;20120;-52
2024/02/22 03:01:50;;;;;;;3.60;2.45;;;9.60;99.90;;;;;;4995484;28;20022;-54
2024/02/22 03:04:18;;;;;;;7.07;2.90;;;9.60;99.90;;;;;;5012925;28;20025;-52
2024/02/22 03:06:45;;;;;;;3.78;3.47;;;9.60;99.90;;;;;;5012830;28;20104;-51
2024/02/22 03:09:11;;;;;;;4.05;3.45;;;9.50;99.90;;;;;;5012801;28;20028;-54
2024/02/22 03:11:37;;;;;;;4.53;3.90;;;9.50;99.90;;;;;;5012968;28;20030;-51
2024/02/22 03:14:05;;;;;;;4.78;4.32;;;9.50;99.90;;;;;;4995201;28;20483;-52
2024/02/22 03:16:32;;;;;;;5.82;4.38;;;9.50;99.90;;;;;;5012701;28;20030;-53
2024/02/22 03:18:58;;;;;;;4.93;4.40;;;9.60;99.90;;;;;;5012644;28;20124;-50
2024/02/22 03:21:23;;;;;;;4.30;3.85;;;9.60;99.90;;;;;;4995120;28;20117;-53
2024/02/22 03:23:49;;;;;;;4.75;3.90;;;9.50;99.90;;;;;;5011362;28;20018;-50
2024/02/22 03:26:18;;;;;;;6.75;4.78;;;9.50;99.90;;;;;;5012476;28;20045;-55
2024/02/22 03:28:45;;;;;;;5.57;4.45;;;9.50;99.90;;;;;;5012719;28;20430;-53
2024/02/22 03:31:10;;;;;;;6.15;4.97;;;9.50;99.90;;;;;;5012970;28;20057;-52
2024/02/22 03:33:36;;;;;;;5.32;4.63;;;9.50;99.90;;;;;;4995838;28;20030;-50
2024/02/22 03:36:02;;;;;;;6.65;4.88;;;9.50;99.90;;;;;;4994352;28;20434;-51
2024/02/22 03:38:27;;;;;;;5.95;5.00;;;9.40;99.90;;;;;;4994479;28;20022;-53
2024/02/22 03:40:56;;;;;;;6.90;5.05;;;9.40;99.90;;;;;;5012392;28;20041;-49
2024/02/22 03:43:21;;;;;;;7.03;5.00;;;9.40;99.90;;;;;;5012497;28;20531;-54
2024/02/22 03:45:47;;;;;;;6.40;5.18;;;9.40;99.90;;;;;;5011892;28;20061;-54
2024/02/22 03:48:12;;;;;;;5.85;5.28;;;9.40;99.90;;;;;;5012092;28;20038;-52
2024/02/22 03:50:38;;;;;;;8.70;5.45;;;9.40;99.90;;;;;;5012118;28;20029;-50
2024/02/22 03:53:04;;;;;;;8.10;5.63;;;9.50;99.90;;;;;;5011811;28;20026;-49
2024/02/22 03:55:30;;;;;;;7.22;5.45;;;9.50;99.90;;;;;;5010599;28;20562;-49
2024/02/22 03:57:56;;;;;;;7.10;5.50;;;9.60;99.90;;;;;;5011652;28;20068;-50
2024/02/22 04:00:22;;;;;;;6.47;5.22;;;9.50;99.90;;;;;;5011960;28;20038;-49
2024/02/22 04:02:48;;;;;;;6.18;5.32;;;9.50;99.90;;;;;;5011992;28;20034;-51
2024/02/22 04:05:14;;;;;;;6.53;5.18;;;9.50;99.90;;;;;;5011745;28;20407;-52
2024/02/22 04:07:42;;;;;;;5.20;4.80;;;9.50;99.90;;;;;;5011616;28;20030;-49
2024/02/22 04:10:08;;;;;;;5.88;5.00;;;9.60;99.90;;;;;;5011913;28;20026;-51
2024/02/22 04:12:34;;;;;;;4.47;3.80;;;9.50;99.90;;;;;;4994149;28;20109;-48
2024/02/22 04:15:00;;;;;;;4.82;3.20;;;9.50;99.90;;;;;;5011625;28;20018;-50
2024/02/22 04:17:25;;;;;;;4.72;3.50;;;9.50;99.90;;;;;;5011581;28;20018;-51
2024/02/22 04:19:52;;;;;;;2.33;2.10;;;9.60;99.90;;;;;;5011849;28;20021;-50
2024/02/22 04:22:18;;;;;;;1.55;1.45;;;9.60;99.90;;;;;;5011101;28;20072;-52
2024/02/22 04:24:44;;;;;;;1.40;1.40;;;9.60;99.90;;;;;;5011502;28;20547;-49
2024/02/22 04:27:09;;;;;;;3.42;1.10;;;9.60;99.90;;;;;;5011665;28;20306;-50
2024/02/22 04:29:38;;;;;;;1.13;1.05;;;9.60;99.90;;;;;;5011613;28;20030;-57
2024/02/22 04:32:04;;;;;;;1.08;1.08;;;9.70;99.90;;;;;;5011873;28;20018;-50
2024/02/22 04:34:29;;;;;;;1.10;1.10;;;9.70;99.90;;;;;;5011612;28;20030;-47
2024/02/22 04:36:55;;;;;;;1.27;1.17;;;9.70;99.90;;;;;;5011731;28;20030;-50
2024/02/22 04:39:20;;;;;;;1.30;1.20;;;9.70;99.90;;;;;;5011799;28;20049;-52
2024/02/22 04:41:46;;;;;;;1.05;0.90;;;9.60;99.90;;;;;;5011685;28;20018;-50
2024/02/22 04:44:12;;;;;;;2.78;1.40;;;9.70;99.90;;;;;;5011203;28;20025;-51
2024/02/22 04:46:37;;;;;;;1.08;1.00;;;9.70;99.90;;;;;;5011352;28;20022;-50
2024/02/22 04:49:04;;;;;;;0.98;0.85;;;9.70;99.90;;;;;;5012656;28;20025;-54
2024/02/22 04:51:31;;;;;;;0.80;0.80;;;9.60;99.90;;;;;;5015246;28;20026;-53
2024/02/22 04:53:57;;;;;;;3.40;1.05;;;9.60;99.90;;;;;;5015253;28;20079;-56
2024/02/22 04:56:23;;;;;;;0.90;0.85;;;9.70;99.90;;;;;;5014723;28;20426;-55
2024/02/22 04:58:48;;;;;;;2.25;1.13;;;9.70;99.90;;;;;;5015358;28;20476;-51
2024/02/22 05:01:14;;;;;;;2.13;1.10;;;9.70;99.90;;;;;;5015479;28;20032;-51
2024/02/22 05:03:39;;;;;;;0.88;0.88;;;9.70;99.90;;;;;;4997602;28;20025;-54
2024/02/22 05:06:05;;;;;;;0.95;0.70;;;9.70;99.90;;;;;;5014866;28;20030;-50
2024/02/22 05:08:31;;;;;;;1.00;0.98;;;9.80;99.90;;;;;;5015229;28;20037;-51
2024/02/22 05:10:56;;;;;;;2.58;0.93;;;9.70;99.90;;;;;;5015230;28;20045;-51
2024/02/22 05:13:22;;;;;;;1.38;0.90;;;9.70;99.90;;;;;;5015034;28;20124;-51
2024/02/22 05:15:48;;;;;;;0.98;0.98;;;9.70;99.90;;;;;;5014899;28;20084;-51
2024/02/22 05:18:13;;;;;;;1.52;1.33;;;9.70;99.90;;;;;;4997494;28;20022;-51
2024/02/22 05:20:39;;;;;;;1.42;1.40;;;9.70;99.90;;;;;;4997486;28;20125;-51
2024/02/22 05:23:08;;;;;;;1.92;1.75;;;9.70;99.90;;;;;;5015341;28;20026;-54
2024/02/22 05:25:34;;;;;;;1.65;1.55;;;9.70;99.90;;;;;;5015150;28;20026;-54
2024/02/22 05:27:59;;;;;;;4.80;2.17;;;9.70;99.90;;;;;;5015050;28;20034;-51
2024/02/22 05:30:25;;;;;;;2.33;1.85;;;9.70;99.90;;;;;;4997313;28;20097;-52
2024/02/22 05:32:51;;;;;;;2.00;1.90;;;9.70;99.90;;;;;;5015009;28;20064;-51
2024/02/22 05:35:16;;;;;;;2.15;2.05;;;9.70;99.90;;;;;;5014652;28;20088;-53
2024/02/22 05:37:42;;;;;;;2.83;1.67;;;9.70;99.90;;;;;;5014795;28;20014;-50
2024/02/22 05:40:08;;;;;;;2.03;1.50;;;9.70;99.90;;;;;;5014914;28;20025;-48
2024/02/22 05:42:34;;;;;;;1.50;1.40;;;9.70;99.90;;;;;;5014818;28;20243;-49
2024/02/22 05:44:59;;;;;;;1.70;1.30;;;9.70;99.90;;;;;;5014672;28;20055;-52
2024/02/22 05:47:25;;;;;;;5.68;1.65;;;9.70;99.90;;;;;;5014470;28;20116;-55
2024/02/22 05:49:51;;;;;;;2.95;1.45;;;9.70;99.90;;;;;;5014699;28;20030;-50
2024/02/22 05:52:16;;;;;;;2.92;1.95;;;9.70;99.90;;;;;;5014828;28;20120;-50
2024/02/22 05:54:42;;;;;;;2.42;1.60;;;9.70;99.90;;;;;;5014675;28;20030;-51
2024/02/22 05:57:08;;;;;;;1.42;1.42;;;9.70;99.90;;;;;;5014177;28;20021;-50
2024/02/22 05:59:33;;;;;;;3.03;1.33;;;9.60;99.90;;;;;;5014095;28;20022;-52
2024/02/22 06:01:59;;;;;;;1.60;1.50;;;9.70;99.90;;;;;;5014289;28;20022;-51
2024/02/22 06:04:24;;;;;;;3.17;1.50;;;9.60;99.90;;;;;;5013998;28;20088;-50
2024/02/22 06:06:50;;;;;;;1.48;1.30;;;9.70;99.90;;;;;;5014287;28;20029;-52
2024/02/22 06:09:15;;;;;;;2.13;1.27;;;9.70;99.90;;;;;;5014150;28;20427;-48
2024/02/22 06:11:41;;;;;;;1.45;1.10;;;9.70;99.90;;;;;;5013804;28;20030;-52
2024/02/22 06:14:06;;;;;;;1.15;1.15;;;9.70;99.90;;;;;;5013900;28;20014;-52
2024/02/22 06:16:32;;;;;;;1.20;1.20;;;9.70;99.90;;;;;;4996146;28;20017;-53
2024/02/22 06:18:58;;;;;;;0.95;0.95;;;9.70;99.90;;;;;;5013983;28;20024;-50
2024/02/22 06:21:24;;;;;;;1.30;1.23;;;9.80;99.90;;;;;;5013965;28;20551;-50
2024/02/22 06:23:49;;;;;;;3.35;1.40;;;9.80;99.90;;;;;;5013749;28;20069;-51
2024/02/22 06:26:15;;;;;;;1.58;1.45;;;9.70;99.90;;;;;;5014156;28;20077;-53
2024/02/22 06:28:40;;;;;;;1.30;1.20;;;9.80;99.90;;;;;;5013754;28;20086;-55
2024/02/22 06:31:06;;;;;;;1.45;0.90;;;9.80;99.90;;;;;;4996081;28;20396;-51
2024/02/22 06:33:33;;;;;;;1.00;1.00;;;9.70;99.90;;;;;;5013656;28;20030;-53
2024/02/22 06:35:59;;;;;;;3.65;0.95;;;9.70;99.90;;;;;;5013323;28;20057;-50
2024/02/22 06:38:24;;;;;;;1.33;1.23;;;9.60;99.90;;;;;;4996155;28;20451;-51
2024/02/22 06:40:50;;;;;;;1.15;1.10;;;9.70;99.90;;;;;;5013592;28;20060;-49
2024/02/22 06:43:16;;;;;;;2.08;1.25;;;9.70;99.90;;;;;;5013471;28;20131;-48
2024/02/22 06:45:42;;;;;;;1.27;1.27;;;9.70;99.90;;;;;;5042461;23;20053;-55
2024/02/22 06:48:08;;;;;;;4.20;1.38;;;9.70;99.90;;;;;;5015569;28;20414;-57
2024/02/22 06:50:34;;;;;;;1.70;1.20;;;9.70;99.90;;;;;;5032022;28;20026;-58
2024/02/22 06:53:03;;;;;;;1.00;1.00;;;9.70;99.90;;;;;;5033201;28;20482;-59
2024/02/22 06:55:31;;;;;;;4.05;1.13;;;9.70;99.90;;;;;;5032811;28;20029;-55
2024/02/22 06:57:56;;;;;;;1.60;0.98;;;9.70;99.90;;;;;;5015126;28;20029;-56
2024/02/22 07:00:22;;;;;;;1.05;1.05;;;9.70;99.90;;;;;;5032906;28;20030;-56
2024/02/22 07:02:48;;;;;;;1.98;1.40;;;9.70;99.90;;;;;;5015117;28;20053;-60
2024/02/22 07:05:13;;;;;;;1.35;1.25;;;9.70;99.90;;;;;;5015087;28;20048;-56
2024/02/22 07:07:39;;;;;;;1.13;1.05;;;9.70;99.90;;;;;;5032770;28;20030;-56
2024/02/22 07:10:06;;;;;;;2.90;1.40;;;9.70;99.90;;;;;;5014959;28;20100;-59
2024/02/22 07:12:32;;;;;;;2.20;1.30;;;9.70;99.90;;;;;;5031815;28;20033;-59
2024/02/22 07:14:58;;;;;;;1.70;1.52;;;9.70;99.90;;;;;;5032459;28;20040;-55
2024/02/22 07:17:24;;;;;;;1.58;1.40;;;9.80;99.90;;;;;;5032560;28;20049;-55
2024/02/22 07:19:49;;;;;;;3.65;1.58;;;9.70;99.90;;;;;;5014827;28;20056;-55
2024/02/22 07:22:15;;;;;;;4.10;1.83;;;9.70;99.90;;;;;;5032495;28;20030;-52
2024/02/22 07:24:41;;;;;;;3.45;2.05;;;9.70;99.90;;;;;;5032374;28;20028;-58
2024/02/22 07:27:07;;;;;;;2.30;1.85;;;9.70;99.90;;;;;;5032354;28;20442;-56
2024/02/22 07:29:33;;;;;;;2.00;1.80;;;9.70;99.90;;;;;;5014746;28;20037;-58
2024/02/22 07:31:59;;;;;;;5.43;2.13;;;9.70;99.90;;;;;;5032386;28;20033;-60
2024/02/22 07:34:24;;;;;;;2.10;1.88;;;9.70;99.90;;;;;;5032182;28;20017;-55
2024/02/22 07:36:50;;;;;;;2.17;1.88;;;9.70;99.90;;;;;;5032163;28;20022;-54
2024/02/22 07:39:16;;;;;;;4.15;2.67;;;9.70;99.90;;;;;;5014501;28;20028;-55
2024/02/22 07:41:43;;;;;;;3.53;2.15;;;9.80;99.90;;;;;;5032328;28;20053;-54
2024/02/22 07:44:08;;;;;;;1.98;1.70;;;9.80;99.90;;;;;;5031953;28;20253;-51
2024/02/22 07:46:34;;;;;;;2.00;1.48;;;9.80;99.90;;;;;;5014053;28;20033;-56
2024/02/22 07:48:59;;;;;;;4.00;1.40;;;9.80;99.90;;;;;;5032151;28;20041;-53
2024/02/22 07:51:25;;;;;;;1.35;1.30;;;9.90;99.90;;;;;;5014854;28;20177;-57
2024/02/22 07:53:50;;;;;;;2.72;1.40;;;9.90;99.90;;;;;;5014674;28;20112;-55
2024/02/22 07:56:16;;;;;;;1.75;1.65;;;9.90;99.90;;;;;;5032183;28;20560;-59
2024/02/22 07:58:46;;;;;;;1.90;1.80;;;9.90;99.90;;;;;;5014391;28;20022;-57
2024/02/22 08:01:12;;;;;;;1.80;1.70;;;9.90;99.90;;;;;;5014349;28;20168;-60
2024/02/22 08:03:37;;;;;;;2.45;1.83;;;9.90;99.90;;;;;;5014054;28;20104;-56
2024/02/22 08:06:03;;;;;;;4.35;1.30;;;9.90;99.90;;;;;;5031716;28;20104;-56
2024/02/22 08:08:29;;;;;;;1.90;1.73;;;9.90;99.90;;;;;;5031910;28;20037;-54
2024/02/22 08:10:55;;;;;;;2.50;2.30;;;9.90;99.90;;;;;;5014281;28;20418;-59
2024/02/22 08:13:21;;;;;;;2.15;1.63;;;9.90;99.90;;;;;;5031544;28;20080;-52
2024/02/22 08:15:47;;;;;;;2.55;2.35;;;9.90;99.90;;;;;;5013459;28;20033;-55
2024/02/22 08:18:12;;;;;;;2.50;1.95;;;10.00;99.90;;;;;;5014141;28;20394;-57
2024/02/22 08:20:38;;;;;;;2.38;2.17;;;10.00;99.90;;;;;;5031704;28;20025;-55
2024/02/22 08:23:08;;;;;;;3.35;2.03;;;10.00;99.90;;;;;;5031205;28;20017;-58
2024/02/22 08:25:35;;;;;;;2.90;2.47;;;10.00;99.90;;;;;;5029839;28;20018;-58
2024/02/22 08:28:01;;;;;;;1.92;1.80;;;10.00;99.90;;;;;;5012784;28;20446;-57
2024/02/22 08:30:26;;;;;;;2.10;1.92;;;10.00;99.90;;;;;;5013328;28;20651;-54
2024/02/22 08:32:51;;;;;;;2.38;2.10;;;10.10;99.90;;;;;;5022845;28;20033;-52
2024/02/22 08:35:17;;;;;;;1.90;1.80;;;10.00;99.90;;;;;;5002600;28;20487;-53
2024/02/22 08:37:42;;;;;;;2.15;1.98;;;10.00;99.90;;;;;;5029266;28;20065;-48
2024/02/22 08:40:08;;;;;;;2.28;2.08;;;10.00;99.90;;;;;;5027054;28;20105;-49
2024/02/22 08:42:34;;;;;;;2.00;1.80;;;10.10;99.90;;;;;;5011628;28;20018;-53
2024/02/22 08:44:59;;;;;;;2.47;1.55;;;10.10;99.90;;;;;;5011719;28;20042;-58
2024/02/22 08:47:25;;;;;;;1.75;1.58;;;10.20;99.90;;;;;;5011456;28;20045;-59
2024/02/22 08:49:50;;;;;;;2.95;2.20;;;10.10;99.90;;;;;;5011514;28;20163;-58
2024/02/22 08:52:16;;;;;;;2.65;1.88;;;10.10;99.90;;;;;;5011638;28;20601;-58
2024/02/22 08:54:42;;;;;;;2.42;1.45;;;10.20;99.90;;;;;;5021934;28;20433;-59
2024/02/22 08:57:07;;;;;;;1.60;1.50;;;10.20;99.90;;;;;;5032570;28;20026;-50
2024/02/22 08:59:33;;;;;;;1.73;1.63;;;10.20;99.90;;;;;;5015990;28;20033;-51
2024/02/22 09:01:59;;;;;;;2.70;1.80;;;10.20;99.90;;;;;;5011741;28;20022;-51
2024/02/22 09:04:26;;;;;;;2.65;2.45;;;10.20;99.90;;;;;;5031423;28;20021;-53
2024/02/22 09:06:52;;;;;;;1.80;1.70;;;10.30;99.90;;;;;;5031126;28;20021;-60
2024/02/22 09:09:18;;;;;;;1.70;1.60;;;10.30;99.90;;;;;;5035540;28;20095;-56
2024/02/22 09:11:43;;;;;;;2.45;1.60;;;10.30;99.90;;;;;;5034040;28;20029;-53
2024/02/22 09:14:09;;;;;;;3.45;1.75;;;10.30;99.90;;;;;;5034014;28;20519;-58
2024/02/22 09:16:35;;;;;;;2.08;1.63;;;10.30;99.90;;;;;;5036307;28;20030;-58
2024/02/22 09:19:00;;;;;;;1.52;1.42;;;10.30;99.90;;;;;;5032148;28;20059;-57
2024/02/22 09:21:26;;;;;;;2.42;1.90;;;10.30;99.90;;;;;;5031600;28;20080;-59
2024/02/22 09:23:52;;;;;;;3.15;1.50;;;10.30;99.90;;;;;;5033214;28;20076;-53
2024/02/22 09:26:17;;;;;;;1.52;1.42;;;10.40;99.90;;;;;;5033109;28;20021;-56
2024/02/22 09:28:43;;;;;;;2.08;1.65;;;10.40;99.90;;;;;;5033203;28;20510;-57
2024/02/22 09:31:08;;;;;;;1.60;1.50;;;10.40;99.90;;;;;;5033516;28;20034;-54
2024/02/22 09:33:34;;;;;;;1.35;1.23;;;10.40;99.90;;;;;;5033669;28;20036;-58
2024/02/22 09:35:59;;;;;;;1.70;1.60;;;10.40;99.90;;;;;;5036159;28;20053;-56
2024/02/22 09:38:26;;;;;;;1.80;1.50;;;10.40;99.90;;;;;;5037369;28;20033;-57
2024/02/22 09:40:52;;;;;;;3.30;1.83;;;10.50;99.90;;;;;;5037983;28;20017;-55
2024/02/22 09:43:18;;;;;;;1.38;1.27;;;10.50;99.90;;;;;;5036640;28;20052;-57
2024/02/22 09:45:45;;;;;;;4.63;1.55;;;10.50;99.90;;;;;;5017888;28;20033;-58
2024/02/22 09:48:10;;;;;;;3.80;1.30;;;10.50;99.90;;;;;;5036487;28;20455;-56
2024/02/22 09:50:37;;;;;;;1.85;1.23;;;10.50;99.90;;;;;;5035347;28;20037;-58
2024/02/22 09:53:03;;;;;;;1.80;1.70;;;10.50;99.90;;;;;;5017613;28;20033;-58
2024/02/22 09:55:29;;;;;;;1.67;1.10;;;10.50;99.90;;;;;;5035028;28;20156;-60
2024/02/22 09:57:55;;;;;;;1.45;1.25;;;10.50;99.90;;;;;;5036361;28;20056;-57
2024/02/22 10:00:20;;;;;;;1.42;1.33;;;10.60;99.90;;;;;;5035449;28;20479;-56
2024/02/22 10:02:46;;;;;;;2.25;1.52;;;10.50;99.90;;;;;;5036105;28;20036;-59
2024/02/22 10:05:12;;;;;;;1.55;1.13;;;10.50;99.90;;;;;;5022443;28;20053;-55
2024/02/22 10:07:39;;;;;;;1.23;1.10;;;10.50;99.90;;;;;;5018282;28;20064;-59
2024/02/22 10:10:06;;;;;;;1.60;1.50;;;10.50;99.90;;;;;;5038846;28;20044;-58
2024/02/22 10:12:35;;;;;;;4.60;1.10;;;10.50;99.90;;;;;;5039417;28;20095;-58
2024/02/22 10:15:01;;;;;;;1.17;1.08;;;10.60;99.90;;;;;;5023981;28;20099;-55
2024/02/22 10:17:31;;;;;;;1.20;1.20;;;10.60;99.90;;;;;;5018296;28;20029;-54
2024/02/22 10:19:59;;;;;;;1.30;1.20;;;10.60;99.90;;;;;;5016908;28;20038;-57
2024/02/22 10:22:26;;;;;;;16.33;13.20;;;10.70;99.90;;;;;;5019462;28;20048;-54
2024/02/22 10:24:52;;;;;;;63.03;33.80;;;10.70;99.90;;;;;;5023873;28;20094;-57
2024/02/22 10:27:25;;;;;;;69.28;38.35;;;10.70;99.90;;;;;;5033450;28;20021;-52
2024/02/22 10:29:51;;;;;;;4.13;2.33;;;10.70;99.90;;;;;;5018916;28;20089;-55
2024/02/22 10:32:20;;;;;;;1.20;1.10;;;10.70;99.90;;;;;;5039491;28;20113;-58
2024/02/22 10:34:50;;;;;;;1.25;0.98;;;10.80;99.90;;;;;;5022111;28;20030;-56
2024/02/22 10:37:16;;;;;;;1.00;1.00;;;10.90;99.90;;;;;;5008724;28;20028;-56
2024/02/22 10:39:42;;;;;;;1.52;1.02;;;10.90;99.90;;;;;;5025810;28;20073;-56
2024/02/22 10:42:09;;;;;;;0.75;0.75;;;10.80;99.90;;;;;;5022732;28;20101;-57
2024/02/22 10:44:34;;;;;;;2.92;1.02;;;10.80;99.90;;;;;;5023514;28;20033;-55
2024/02/22 10:47:02;;;;;;;1.27;1.17;;;10.80;99.90;;;;;;5041574;28;20151;-55
2024/02/22 10:49:31;;;;;;;1.40;1.05;;;10.80;99.90;;;;;;5041460;28;20118;-54
2024/02/22 10:51:59;;;;;;;3.17;1.00;;;10.80;99.90;;;;;;5039724;28;20025;-51
2024/02/22 10:54:28;;;;;;;0.93;0.80;;;10.80;99.90;;;;;;5038329;28;20018;-56
2024/02/22 10:56:55;;;;;;;0.85;0.85;;;10.80;99.90;;;;;;5023046;28;20026;-55
2024/02/22 10:59:23;;;;;;;1.70;1.10;;;10.90;99.90;;;;;;5039583;28;20471;-50
2024/02/22 11:01:50;;;;;;;3.13;1.00;;;10.90;99.90;;;;;;5038985;28;20021;-52
2024/02/22 11:04:16;;;;;;;1.30;1.00;;;10.90;99.90;;;;;;5039006;28;20111;-56
2024/02/22 11:06:43;;;;;;;1.05;0.80;;;11.00;99.90;;;;;;5041830;28;20442;-52
2024/02/22 11:09:19;;;;;;;0.75;0.75;;;11.00;99.90;;;;;;5042583;28;20128;-53
2024/02/22 11:11:48;;;;;;;0.90;0.90;;;11.00;99.90;;;;;;5041809;28;20588;-50
2024/02/22 11:14:35;;;;;;;0.80;0.80;;;11.00;99.90;;;;;;5038735;28;20060;-55
2024/02/22 11:17:05;;;;;;;0.90;0.90;;;11.00;99.90;;;;;;5038633;28;20087;-55
2024/02/22 11:19:31;;;;;;;1.38;0.77;;;11.00;99.90;;;;;;5040306;28;20565;-51
2024/02/22 11:21:56;;;;;;;0.90;0.60;;;11.00;99.90;;;;;;5038883;28;20352;-52
2024/02/22 11:24:24;;;;;;;1.05;1.05;;;11.00;99.90;;;;;;5021606;28;20021;-53
2024/02/22 11:26:50;;;;;;;0.73;0.73;;;11.00;99.90;;;;;;5038555;28;20017;-53
2024/02/22 11:29:32;;;;;;;0.50;0.50;;;11.00;99.90;;;;;;5038349;28;20033;-52
2024/02/22 11:32:02;;;;;;;0.80;0.80;;;11.00;99.90;;;;;;5039269;28;20025;-53
2024/02/22 11:34:30;;;;;;;0.57;0.57;;;11.00;99.90;;;;;;5038093;28;20477;-54
2024/02/22 11:37:17;;;;;;;3.70;0.75;;;11.10;99.90;;;;;;5019060;28;20030;-53
2024/02/22 11:39:59;;;;;;;1.00;0.80;;;;;;;;;;5031996;28;20432;-52
2024/02/22 11:42:25;;;;;;;1.98;0.68;;;11.20;99.90;;;;;;5031700;28;20517;-58
2024/02/22 11:44:51;;;;;;;0.50;0.50;;;11.10;99.90;;;;;;5037132;28;20052;-56
2024/02/22 11:47:17;;;;;;;0.40;0.40;;;11.10;99.90;;;;;;5040228;28;20033;-52
2024/02/22 11:49:44;;;;;;;1.40;0.55;;;11.10;99.90;;;;;;5040310;28;20087;-54
2024/02/22 11:52:10;;;;;;;1.98;0.60;;;11.10;99.90;;;;;;5039071;28;20075;-53
2024/02/22 11:54:36;;;;;;;1.95;0.65;;;11.20;99.90;;;;;;5036502;28;20059;-57
2024/02/22 11:57:02;;;;;;;0.57;0.57;;;11.20;99.90;;;;;;5035798;28;20021;-57
2024/02/22 11:59:29;;;;;;;0.60;0.60;;;11.20;99.90;;;;;;5029806;28;20028;-57
2024/02/22 12:01:55;;;;;;;0.57;0.57;;;11.20;99.90;;;;;;5023801;28;20026;-55
2024/02/22 12:04:21;;;;;;;0.50;0.50;;;11.20;99.90;;;;;;5021437;28;20117;-55
2024/02/22 12:06:48;;;;;;;1.33;0.95;;;11.20;99.90;;;;;;5007874;28;20103;-54
2024/02/22 12:09:14;;;;;;;0.50;0.50;;;11.30;99.90;;;;;;5025725;28;20029;-58
2024/02/22 12:11:41;;;;;;;0.90;0.70;;;11.30;99.90;;;;;;5033509;28;20017;-54
2024/02/22 12:14:07;;;;;;;2.75;0.65;;;11.30;99.90;;;;;;5031887;28;20031;-49
2024/02/22 12:16:41;;;;;;;0.75;0.75;;;11.30;99.90;;;;;;5031547;28;20029;-50
2024/02/22 12:19:06;;;;;;;0.80;0.80;;;11.40;99.90;;;;;;5031060;28;20029;-52
2024/02/22 12:21:38;;;;;;;2.30;0.60;;;11.30;99.90;;;;;;5030123;28;20502;-47
2024/02/22 12:24:04;;;;;;;1.30;0.63;;;11.30;99.90;;;;;;5032203;28;20022;-52
2024/02/22 12:26:29;;;;;;;1.00;0.77;;;11.30;99.90;;;;;;5034562;28;20034;-53
2024/02/22 12:28:57;;;;;;;0.65;0.65;;;11.30;99.90;;;;;;5035240;28;20034;-52
2024/02/22 12:31:26;;;;;;;56.35;32.55;;;11.30;99.90;;;;;;5023391;28;20033;-54
2024/02/22 12:33:53;;;;;;;30.23;16.90;;;11.20;99.90;;;;;;5017998;28;20036;-51
2024/02/22 12:36:21;;;;;;;1.67;1.58;;;11.30;99.90;;;;;;5029221;28;20410;-50
2024/02/22 12:38:47;;;;;;;0.90;0.80;;;11.20;99.90;;;;;;5032106;28;20049;-56
2024/02/22 12:41:13;;;;;;;3.70;0.75;;;11.20;99.90;;;;;;5029908;28;20029;-55
2024/02/22 12:43:45;;;;;;;1.42;0.82;;;11.20;99.90;;;;;;5032888;28;20025;-54
2024/02/22 12:46:14;;;;;;;2.38;0.88;;;11.20;99.90;;;;;;5020329;28;20514;-55
2024/02/22 12:48:40;;;;;;;0.70;0.70;;;11.20;99.90;;;;;;5008468;28;20037;-57